Time,TemperatureF,DewpointF,PressureIn,WindDirection,WindDirectionDegrees,WindSpeedMPH,WindSpeedGustMPH,Humidity,HourlyPrecipIn,Conditions,Clouds,dailyrainin,SoftwareType,DateUTC
2013-12-31 00:12:00,-1.8,-5.0,30.36,NW,315,6.0,10.0,85,0.00,,,0.00,weatherlink.com 1.10,2013-12-31 06:12:00,
2013-12-31 00:27:00,-1.2,-5.0,30.35,NNW,337,13.0,15.0,85,0.00,,,0.00,weatherlink.com 1.10,2013-12-31 06:27:00,
2013-12-31 00:42:00,-0.9,-4.0,30.34,North,351,9.0,11.0,85,0.00,,,0.00,weatherlink.com 1.10,2013-12-31 06:42:00,
2013-12-31 00:57:00,-0.4,-4.0,30.34,NW,324,5.0,11.0,85,0.00,,,0.00,weatherlink.com 1.10,2013-12-31 06:57:00,
2013-12-31 01:12:00,-0.5,-4.0,30.34,North,359,6.0,12.0,85,0.00,,,0.00,weatherlink.com 1.10,2013-12-31 07:12:00,
2013-12-31 01:28:00,-0.4,-4.0,30.34,North,357,6.0,9.0,85,0.00,,,0.00,weatherlink.com 1.10,2013-12-31 07:28:00,
2013-12-31 01:43:00,-0.4,-4.0,30.34,NW,312,4.0,9.0,85,0.00,,,0.00,weatherlink.com 1.10,2013-12-31 07:43:00,
2013-12-31 01:58:00,-0.3,-4.0,30.34,NNW,331,6.0,8.0,85,0.00,,,0.00,weatherlink.com 1.10,2013-12-31 07:58:00,
2013-12-31 02:13:00,-0.3,-4.0,30.34,NE,37,6.0,10.0,84,0.00,,,0.00,weatherlink.com 1.10,2013-12-31 08:13:00,
2013-12-31 02:28:00,-0.4,-4.0,30.33,NNW,336,6.0,12.0,84,0.00,,,0.00,weatherlink.com 1.10,2013-12-31 08:28:00,
2013-12-31 02:43:00,-0.4,-4.0,30.34,WNW,285,8.0,12.0,84,0.00,,,0.00,weatherlink.com 1.10,2013-12-31 08:43:00,
2013-12-31 02:58:00,-0.3,-4.0,30.34,ESE,107,4.0,9.0,85,0.00,,,0.00,weatherlink.com 1.10,2013-12-31 08:58:00,
2013-12-31 03:13:00,-0.3,-4.0,30.35,North,9,2.0,8.0,85,0.00,,,0.00,weatherlink.com 1.10,2013-12-31 09:13:00,
2013-12-31 03:28:00,-0.4,-4.0,30.35,North,351,5.0,8.0,84,0.00,,,0.00,weatherlink.com 1.10,2013-12-31 09:28:00,
2013-12-31 03:43:00,-0.4,-4.0,30.34,North,351,0.0,8.0,85,0.00,,,0.00,weatherlink.com 1.10,2013-12-31 09:43:00,
2013-12-31 03:58:00,-0.5,-4.0,30.34,North,359,1.0,6.0,84,0.00,,,0.00,weatherlink.com 1.10,2013-12-31 09:58:00,
2013-12-31 04:13:00,-0.5,-4.0,30.34,NNW,338,3.0,5.0,85,0.00,,,0.00,weatherlink.com 1.10,2013-12-31 10:13:00,
2013-12-31 04:28:00,-0.4,-4.0,30.34,NW,307,3.0,7.0,84,0.00,,,0.00,weatherlink.com 1.10,2013-12-31 10:28:00,
2013-12-31 04:43:00,-0.2,-4.0,30.34,West,280,0.0,3.0,85,0.00,,,0.00,weatherlink.com 1.10,2013-12-31 10:43:00,
2013-12-31 04:59:00,0.1,-4.0,30.35,NW,319,2.0,5.0,84,0.00,,,0.00,weatherlink.com 1.10,2013-12-31 10:59:00,
2013-12-31 05:14:00,0.5,-3.0,30.35,NW,317,3.0,5.0,84,0.00,,,0.00,weatherlink.com 1.10,2013-12-31 11:14:00,
2013-12-31 05:29:00,0.6,-3.0,30.36,NW,304,1.0,3.0,84,0.00,,,0.00,weatherlink.com 1.10,2013-12-31 11:29:00,
2013-12-31 05:44:00,0.8,-3.0,30.36,NW,326,0.0,2.0,83,0.00,,,0.00,weatherlink.com 1.10,2013-12-31 11:44:00,
2013-12-31 05:59:00,1.1,-3.0,30.36,NW,323,1.0,4.0,83,0.00,,,0.00,weatherlink.com 1.10,2013-12-31 11:59:00,
2013-12-31 06:14:00,1.2,-3.0,30.36,East,89,0.0,3.0,83,0.00,,,0.00,weatherlink.com 1.10,2013-12-31 12:14:00,
2013-12-31 06:29:00,1.3,-3.0,30.35,ENE,69,0.0,1.0,83,0.00,,,0.00,weatherlink.com 1.10,2013-12-31 12:29:00,
2013-12-31 06:44:00,1.4,-3.0,30.34,NE,56,3.0,4.0,83,0.00,,,0.00,weatherlink.com 1.10,2013-12-31 12:44:00,
2013-12-31 06:59:00,1.3,-3.0,30.35,ENE,65,4.0,6.0,83,0.00,,,0.00,weatherlink.com 1.10,2013-12-31 12:59:00,
2013-12-31 07:14:00,1.3,-3.0,30.35,ENE,57,1.0,4.0,83,0.00,,,0.00,weatherlink.com 1.10,2013-12-31 13:14:00,
2013-12-31 07:29:00,1.4,-2.0,30.34,ENE,76,3.0,3.0,84,0.00,,,0.00,weatherlink.com 1.10,2013-12-31 13:29:00,
2013-12-31 07:44:00,1.3,-2.0,30.34,ENE,67,3.0,4.0,84,0.00,,,0.00,weatherlink.com 1.10,2013-12-31 13:44:00,
2013-12-31 07:59:00,1.3,-2.0,30.34,East,93,4.0,4.0,85,0.00,,,0.00,weatherlink.com 1.10,2013-12-31 13:59:00,
2013-12-31 08:15:00,1.5,-2.0,30.35,ESE,114,2.0,4.0,85,0.00,,,0.00,weatherlink.com 1.10,2013-12-31 14:15:00,
2013-12-31 08:30:00,1.6,-2.0,30.35,ENE,69,5.0,6.0,85,0.00,,,0.00,weatherlink.com 1.10,2013-12-31 14:30:00,
2013-12-31 08:45:00,1.8,-2.0,30.36,East,87,4.0,6.0,84,0.00,,,0.00,weatherlink.com 1.10,2013-12-31 14:45:00,
2013-12-31 09:00:00,2.1,-2.0,30.36,ESE,112,4.0,9.0,84,0.00,,,0.00,weatherlink.com 1.10,2013-12-31 15:00:00,
2013-12-31 09:15:00,2.0,-2.0,30.36,NE,37,3.0,9.0,83,0.00,,,0.00,weatherlink.com 1.10,2013-12-31 15:15:00,
2013-12-31 09:30:00,2.1,-2.0,30.35,ESE,106,3.0,12.0,83,0.00,,,0.00,weatherlink.com 1.10,2013-12-31 15:30:00,
2013-12-31 09:45:00,2.2,-2.0,30.36,East,99,5.0,10.0,83,0.00,,,0.00,weatherlink.com 1.10,2013-12-31 15:45:00,
2013-12-31 10:00:00,2.3,-1.0,30.36,East,80,5.0,10.0,84,0.00,,,0.00,weatherlink.com 1.10,2013-12-31 16:00:00,
2013-12-31 10:15:00,2.6,-1.0,30.36,ESE,120,3.0,10.0,84,0.00,,,0.00,weatherlink.com 1.10,2013-12-31 16:15:00,
2013-12-31 10:30:00,2.6,-1.0,30.35,East,94,8.0,14.0,84,0.00,,,0.00,weatherlink.com 1.10,2013-12-31 16:30:00,
2013-12-31 10:45:00,2.5,-2.0,30.36,East,81,5.0,13.0,83,0.00,,,0.00,weatherlink.com 1.10,2013-12-31 16:45:00,
2013-12-31 11:00:00,2.3,-1.0,30.36,East,87,3.0,10.0,84,0.00,,,0.00,weatherlink.com 1.10,2013-12-31 17:00:00,
2013-12-31 11:15:00,2.2,-2.0,30.35,NE,49,8.0,13.0,83,0.00,,,0.00,weatherlink.com 1.10,2013-12-31 17:15:00,
2013-12-31 11:30:00,2.4,-1.0,30.36,ESE,103,8.0,11.0,84,0.00,,,0.00,weatherlink.com 1.10,2013-12-31 17:30:00,
2013-12-31 11:46:00,2.5,-2.0,30.34,NE,43,8.0,13.0,82,0.00,,,0.00,weatherlink.com 1.10,2013-12-31 17:46:00,
2013-12-31 12:01:00,2.4,-2.0,30.35,NE,49,10.0,13.0,82,0.00,,,0.00,weatherlink.com 1.10,2013-12-31 18:01:00,
2013-12-31 12:16:00,2.2,-2.0,30.34,NE,47,9.0,13.0,82,0.00,,,0.00,weatherlink.com 1.10,2013-12-31 18:16:00,
2013-12-31 12:31:00,2.0,-2.0,30.33,ENE,70,10.0,13.0,82,0.00,,,0.00,weatherlink.com 1.10,2013-12-31 18:31:00,
2013-12-31 12:46:00,1.8,-3.0,30.34,ENE,75,3.0,12.0,81,0.00,,,0.00,weatherlink.com 1.10,2013-12-31 18:46:00,
2013-12-31 13:01:00,1.7,-3.0,30.33,NE,39,9.0,14.0,82,0.00,,,0.00,weatherlink.com 1.10,2013-12-31 19:01:00,
2013-12-31 13:16:00,1.7,-2.0,30.32,NE,49,11.0,15.0,83,0.00,,,0.00,weatherlink.com 1.10,2013-12-31 19:16:00,
2013-12-31 13:31:00,1.6,-2.0,30.32,NE,56,6.0,11.0,83,0.00,,,0.00,weatherlink.com 1.10,2013-12-31 19:31:00,
2013-12-31 13:46:00,1.5,-3.0,30.33,NE,39,12.0,15.0,83,0.00,,,0.00,weatherlink.com 1.10,2013-12-31 19:46:00,
2013-12-31 14:01:00,1.2,-3.0,30.33,NNE,23,10.0,15.0,84,0.00,,,0.00,weatherlink.com 1.10,2013-12-31 20:01:00,
2013-12-31 14:16:00,0.9,-3.0,30.32,NE,39,16.0,16.0,84,0.00,,,0.00,weatherlink.com 1.10,2013-12-31 20:16:00,
2013-12-31 14:31:00,0.7,-3.0,30.32,NE,47,7.0,16.0,84,0.00,,,0.00,weatherlink.com 1.10,2013-12-31 20:31:00,
2013-12-31 14:46:00,0.6,-4.0,30.34,NE,38,10.0,16.0,82,0.00,,,0.00,weatherlink.com 1.10,2013-12-31 20:46:00,
2013-12-31 15:02:00,0.7,-3.0,30.35,NE,40,9.0,13.0,83,0.00,,,0.00,weatherlink.com 1.10,2013-12-31 21:02:00,
2013-12-31 15:17:00,0.6,-3.0,30.34,NE,34,5.0,12.0,83,0.00,,,0.00,weatherlink.com 1.10,2013-12-31 21:17:00,
2013-12-31 15:32:00,0.5,-4.0,30.35,NE,49,5.0,12.0,83,0.00,,,0.00,weatherlink.com 1.10,2013-12-31 21:32:00,
2013-12-31 15:47:00,0.2,-4.0,30.36,NE,44,8.0,16.0,82,0.00,,,0.00,weatherlink.com 1.10,2013-12-31 21:47:00,
2013-12-31 16:02:00,0.2,-4.0,30.36,NE,43,5.0,14.0,83,0.00,,,0.00,weatherlink.com 1.10,2013-12-31 22:02:00,
2013-12-31 16:17:00,0.3,-4.0,30.37,NE,49,11.0,12.0,83,0.00,,,0.00,weatherlink.com 1.10,2013-12-31 22:17:00,
2013-12-31 16:32:00,0.1,-4.0,30.38,NE,54,8.0,11.0,83,0.00,,,0.00,weatherlink.com 1.10,2013-12-31 22:32:00,
2013-12-31 16:47:00,-0.1,-4.0,30.38,NNE,21,6.0,13.0,82,0.00,,,0.00,weatherlink.com 1.10,2013-12-31 22:47:00,
2013-12-31 17:02:00,-0.2,-4.0,30.37,NE,52,9.0,17.0,82,0.00,,,0.00,weatherlink.com 1.10,2013-12-31 23:02:00,
2013-12-31 17:17:00,-0.4,-5.0,30.38,ENE,58,9.0,15.0,82,0.00,,,0.00,weatherlink.com 1.10,2013-12-31 23:17:00,
2013-12-31 17:32:00,-0.4,-4.0,30.40,NE,43,8.0,12.0,83,0.00,,,0.00,weatherlink.com 1.10,2013-12-31 23:32:00,
2013-12-31 17:47:00,-0.4,-4.0,30.40,NE,40,10.0,13.0,83,0.00,,,0.00,weatherlink.com 1.10,2013-12-31 23:47:00,
2013-12-31 18:02:00,-0.7,-5.0,30.40,NE,53,9.0,13.0,83,0.00,,,0.00,weatherlink.com 1.10,2014-01-01 00:02:00,
2013-12-31 18:17:00,-0.9,-5.0,30.40,NE,47,14.0,14.0,83,0.00,,,0.00,weatherlink.com 1.10,2014-01-01 00:17:00,
2013-12-31 18:33:00,-1.0,-5.0,30.39,NE,54,7.0,15.0,83,0.00,,,0.00,weatherlink.com 1.10,2014-01-01 00:33:00,
2013-12-31 18:48:00,-1.3,-5.0,30.40,NE,52,8.0,13.0,84,0.00,,,0.00,weatherlink.com 1.10,2014-01-01 00:48:00,
2013-12-31 19:03:00,-1.4,-5.0,30.41,NE,52,7.0,10.0,84,0.00,,,0.00,weatherlink.com 1.10,2014-01-01 01:03:00,
2013-12-31 19:18:00,-1.5,-5.0,30.41,NE,40,7.0,10.0,84,0.00,,,0.00,weatherlink.com 1.10,2014-01-01 01:18:00,
2013-12-31 19:33:00,-1.7,-5.0,30.41,NE,40,12.0,12.0,84,0.00,,,0.00,weatherlink.com 1.10,2014-01-01 01:33:00,
2013-12-31 19:48:00,-1.9,-6.0,30.41,NE,47,8.0,16.0,84,0.00,,,0.00,weatherlink.com 1.10,2014-01-01 01:48:00,
2013-12-31 20:03:00,-2.1,-6.0,30.42,NNE,33,10.0,12.0,84,0.00,,,0.00,weatherlink.com 1.10,2014-01-01 02:03:00,
2013-12-31 20:18:00,-2.1,-6.0,30.42,ENE,78,6.0,11.0,84,0.00,,,0.00,weatherlink.com 1.10,2014-01-01 02:18:00,
2013-12-31 20:33:00,-2.1,-6.0,30.42,NNE,13,3.0,12.0,84,0.00,,,0.00,weatherlink.com 1.10,2014-01-01 02:33:00,
2013-12-31 20:48:00,-2.1,-6.0,30.41,ENE,64,5.0,10.0,84,0.00,,,0.00,weatherlink.com 1.10,2014-01-01 02:48:00,
2013-12-31 21:03:00,-2.2,-6.0,30.42,NE,53,10.0,13.0,84,0.00,,,0.00,weatherlink.com 1.10,2014-01-01 03:03:00,
2013-12-31 21:18:00,-2.2,-6.0,30.42,ENE,58,8.0,12.0,84,0.00,,,0.00,weatherlink.com 1.10,2014-01-01 03:18:00,
2013-12-31 21:33:00,-2.2,-6.0,30.42,NE,45,13.0,13.0,84,0.00,,,0.00,weatherlink.com 1.10,2014-01-01 03:33:00,
2013-12-31 21:49:00,-2.4,-6.0,30.39,SE,126,7.0,14.0,83,0.00,,,0.00,weatherlink.com 1.10,2014-01-01 03:49:00,
2013-12-31 22:04:00,-2.5,-6.0,30.40,NE,41,11.0,15.0,84,0.00,,,0.00,weatherlink.com 1.10,2014-01-01 04:04:00,
2013-12-31 22:19:00,-2.6,-6.0,30.41,NE,45,7.0,14.0,84,0.00,,,0.00,weatherlink.com 1.10,2014-01-01 04:19:00,
2013-12-31 22:34:00,-2.8,-7.0,30.41,NE,45,7.0,16.0,83,0.00,,,0.00,weatherlink.com 1.10,2014-01-01 04:34:00,
2013-12-31 22:49:00,-3.1,-7.0,30.41,NE,37,6.0,12.0,83,0.00,,,0.00,weatherlink.com 1.10,2014-01-01 04:49:00,
2013-12-31 23:04:00,-3.4,-7.0,30.40,ENE,68,7.0,14.0,83,0.00,,,0.00,weatherlink.com 1.10,2014-01-01 05:04:00,
2013-12-31 23:19:00,-3.8,-8.0,30.40,NE,42,11.0,16.0,82,0.00,,,0.00,weatherlink.com 1.10,2014-01-01 05:19:00,
2013-12-31 23:34:00,-4.4,-9.0,30.39,NE,34,11.0,13.0,82,0.00,,,0.00,weatherlink.com 1.10,2014-01-01 05:34:00,
2013-12-31 23:49:00,-4.6,-9.0,30.40,ENE,61,16.0,16.0,82,0.00,,,0.00,weatherlink.com 1.10,2014-01-01 05:49:00,